createdAt,value
2022-09-12T00:01:48.274Z,70
2022-09-12T00:16:48.289Z,70
2022-09-12T00:31:48.272Z,71
2022-09-12T00:46:48.154Z,72
2022-09-12T01:01:48.295Z,72
2022-09-12T01:16:48.111Z,72
2022-09-12T01:31:48.224Z,72
2022-09-12T01:46:48.065Z,73
2022-09-12T02:01:48.187Z,74
2022-09-12T02:16:48.051Z,75
2022-09-12T02:31:48.113Z,76
2022-09-12T02:46:47.985Z,76
2022-09-12T03:01:48.047Z,77
2022-09-12T03:16:47.969Z,78
2022-09-12T03:31:48.004Z,78
2022-09-12T03:46:47.882Z,79
2022-09-12T04:01:47.959Z,79
2022-09-12T04:16:47.916Z,79
2022-09-12T04:31:47.921Z,79
2022-09-12T04:46:47.802Z,78
2022-09-12T05:01:47.862Z,78
2022-09-12T05:16:49.678Z,79
2022-09-12T05:31:47.761Z,79
2022-09-12T05:46:47.703Z,80
2022-09-12T06:01:47.852Z,80
2022-09-12T06:16:47.672Z,76
2022-09-12T06:31:47.733Z,71
2022-09-12T06:46:47.601Z,68
2022-09-12T07:01:47.727Z,66
2022-09-12T07:16:47.609Z,62
2022-09-12T07:31:47.648Z,59
2022-09-12T07:46:47.494Z,56
2022-09-12T08:01:47.639Z,54
2022-09-12T08:16:47.443Z,51
2022-09-12T08:31:47.455Z,50
2022-09-12T08:46:47.430Z,49
2022-09-12T09:01:47.546Z,47
2022-09-12T09:16:47.345Z,46
2022-09-12T09:31:47.419Z,45
2022-09-12T09:46:47.279Z,46
2022-09-12T10:01:47.496Z,48
2022-09-12T10:16:47.224Z,50
2022-09-12T10:31:47.298Z,51
2022-09-12T10:46:47.165Z,52
2022-09-12T11:01:47.326Z,51
2022-09-12T11:16:47.124Z,48
2022-09-12T11:46:51.573Z,48
2022-09-12T12:01:48.584Z,47
2022-09-12T12:16:47.113Z,46
2022-09-12T12:31:46.984Z,44
2022-09-12T12:46:46.979Z,44
2022-09-12T13:01:49.519Z,44
2022-09-12T13:16:46.897Z,44
2022-09-12T13:31:47.531Z,42
2022-09-12T13:46:46.859Z,42
2022-09-12T14:01:46.900Z,41
2022-09-12T14:16:46.896Z,41
2022-09-12T14:31:46.863Z,41
2022-09-12T14:46:46.730Z,41
2022-09-12T15:01:46.907Z,41
2022-09-12T15:16:46.706Z,42
2022-09-12T15:31:46.758Z,42
2022-09-12T15:46:46.717Z,42
2022-09-12T16:01:46.749Z,43
2022-09-12T16:16:46.663Z,43
2022-09-12T16:31:46.644Z,43
2022-09-12T16:46:46.582Z,43
2022-09-12T17:01:46.615Z,43
2022-09-12T17:16:51.402Z,44
2022-09-12T17:31:46.462Z,44
2022-09-12T17:46:46.436Z,45
2022-09-12T18:01:46.427Z,46
2022-09-12T18:31:46.352Z,48
2022-09-12T18:46:46.340Z,49
2022-09-12T19:01:46.336Z,50
2022-09-12T19:16:46.239Z,52
2022-09-12T19:31:46.251Z,53
2022-09-12T19:46:46.237Z,55
2022-09-12T20:01:46.365Z,56
2022-09-12T20:16:46.148Z,57
2022-09-12T20:46:46.114Z,58
2022-09-12T21:01:46.132Z,59
2022-09-12T21:16:46.017Z,60
2022-09-12T21:31:46.111Z,60
2022-09-12T21:46:46.011Z,61
2022-09-12T22:01:46.012Z,62
2022-09-12T22:16:45.956Z,63
2022-09-12T22:31:45.965Z,64
2022-09-12T22:46:45.966Z,65
2022-09-12T23:01:45.869Z,65
2022-09-12T23:16:45.846Z,65
2022-09-12T23:31:45.872Z,65
2022-09-12T23:46:45.754Z,66
